sensor_id;sensor_type;location;lat;lon;timestamp;temperature;humidity
52769;DHT22;40471;44.534;18.644;2023-07-16T00:00:59;25.10;99.90
52769;DHT22;40471;44.534;18.644;2023-07-16T00:03:24;25.10;99.90
52769;DHT22;40471;44.534;18.644;2023-07-16T00:05:50;25.10;99.90
52769;DHT22;40471;44.534;18.644;2023-07-16T00:08:16;25.10;99.90
52769;DHT22;40471;44.534;18.644;2023-07-16T00:10:42;25.10;99.90
52769;DHT22;40471;44.534;18.644;2023-07-16T00:13:07;25.00;99.90
52769;DHT22;40471;44.534;18.644;2023-07-16T00:15:33;25.10;99.90
52769;DHT22;40471;44.534;18.644;2023-07-16T00:17:58;24.90;99.90
52769;DHT22;40471;44.534;18.644;2023-07-16T00:20:24;24.90;99.90
52769;DHT22;40471;44.534;18.644;2023-07-16T00:22:50;24.90;99.90
52769;DHT22;40471;44.534;18.644;2023-07-16T00:25:15;24.80;99.90
52769;DHT22;40471;44.534;18.644;2023-07-16T00:27:41;24.90;99.90
52769;DHT22;40471;44.534;18.644;2023-07-16T00:30:07;24.90;99.90
52769;DHT22;40471;44.534;18.644;2023-07-16T00:32:33;25.00;99.90
52769;DHT22;40471;44.534;18.644;2023-07-16T00:34:59;24.90;99.90
52769;DHT22;40471;44.534;18.644;2023-07-16T00:37:24;24.90;99.90
52769;DHT22;40471;44.534;18.644;2023-07-16T00:39:50;24.80;99.90
52769;DHT22;40471;44.534;18.644;2023-07-16T00:42:16;24.80;99.90
52769;DHT22;40471;44.534;18.644;2023-07-16T00:44:41;24.80;99.90
52769;DHT22;40471;44.534;18.644;2023-07-16T00:47:08;24.70;99.90
52769;DHT22;40471;44.534;18.644;2023-07-16T00:49:33;24.80;99.90
52769;DHT22;40471;44.534;18.644;2023-07-16T00:51:59;24.70;99.90
52769;DHT22;40471;44.534;18.644;2023-07-16T00:54:25;24.80;99.90
52769;DHT22;40471;44.534;18.644;2023-07-16T00:56:51;24.80;99.90
52769;DHT22;40471;44.534;18.644;2023-07-16T00:59:17;24.60;99.90
52769;DHT22;40471;44.534;18.644;2023-07-16T01:01:43;24.80;99.90
52769;DHT22;40471;44.534;18.644;2023-07-16T01:04:08;24.80;99.90
52769;DHT22;40471;44.534;18.644;2023-07-16T01:06:38;24.70;99.90
52769;DHT22;40471;44.534;18.644;2023-07-16T01:09:08;24.70;99.90
52769;DHT22;40471;44.534;18.644;2023-07-16T01:11:35;24.70;99.90
52769;DHT22;40471;44.534;18.644;2023-07-16T01:14:01;24.70;99.90
52769;DHT22;40471;44.534;18.644;2023-07-16T01:16:27;24.60;99.90
52769;DHT22;40471;44.534;18.644;2023-07-16T01:18:53;24.70;99.90
52769;DHT22;40471;44.534;18.644;2023-07-16T01:21:20;24.60;99.90
52769;DHT22;40471;44.534;18.644;2023-07-16T01:24:13;24.70;99.90
52769;DHT22;40471;44.534;18.644;2023-07-16T01:30:07;24.60;99.90
52769;DHT22;40471;44.534;18.644;2023-07-16T01:32:26;24.60;99.90
52769;DHT22;40471;44.534;18.644;2023-07-16T01:34:53;24.40;99.90
52769;DHT22;40471;44.534;18.644;2023-07-16T01:37:19;24.40;99.90
52769;DHT22;40471;44.534;18.644;2023-07-16T01:39:45;24.40;99.90
52769;DHT22;40471;44.534;18.644;2023-07-16T01:42:10;24.40;99.90
52769;DHT22;40471;44.534;18.644;2023-07-16T01:44:37;24.40;99.90
52769;DHT22;40471;44.534;18.644;2023-07-16T01:49:32;24.20;99.90
52769;DHT22;40471;44.534;18.644;2023-07-16T01:51:59;24.20;99.90
52769;DHT22;40471;44.534;18.644;2023-07-16T01:54:24;24.20;99.90
52769;DHT22;40471;44.534;18.644;2023-07-16T01:56:50;24.20;99.90
52769;DHT22;40471;44.534;18.644;2023-07-16T01:59:15;24.20;99.90
52769;DHT22;40471;44.534;18.644;2023-07-16T02:01:41;24.20;99.90
52769;DHT22;40471;44.534;18.644;2023-07-16T02:04:07;24.20;99.90
52769;DHT22;40471;44.534;18.644;2023-07-16T02:06:32;24.20;99.90
52769;DHT22;40471;44.534;18.644;2023-07-16T02:08:58;24.20;99.90
52769;DHT22;40471;44.534;18.644;2023-07-16T02:11:23;24.20;99.90
52769;DHT22;40471;44.534;18.644;2023-07-16T02:13:49;24.20;99.90
52769;DHT22;40471;44.534;18.644;2023-07-16T02:16:14;24.20;99.90
52769;DHT22;40471;44.534;18.644;2023-07-16T02:18:40;24.20;99.90
52769;DHT22;40471;44.534;18.644;2023-07-16T02:21:05;24.20;99.90
52769;DHT22;40471;44.534;18.644;2023-07-16T02:23:31;24.10;99.90
52769;DHT22;40471;44.534;18.644;2023-07-16T02:25:57;24.10;99.90
52769;DHT22;40471;44.534;18.644;2023-07-16T02:28:22;24.10;99.90
52769;DHT22;40471;44.534;18.644;2023-07-16T02:30:48;24.00;99.90
52769;DHT22;40471;44.534;18.644;2023-07-16T02:33:14;24.00;99.90
52769;DHT22;40471;44.534;18.644;2023-07-16T02:35:40;24.00;99.90
52769;DHT22;40471;44.534;18.644;2023-07-16T02:38:05;23.90;99.90
52769;DHT22;40471;44.534;18.644;2023-07-16T02:40:31;23.90;99.90
52769;DHT22;40471;44.534;18.644;2023-07-16T02:42:57;23.90;99.90
52769;DHT22;40471;44.534;18.644;2023-07-16T02:45:22;23.90;99.90
52769;DHT22;40471;44.534;18.644;2023-07-16T02:47:48;23.90;99.90
52769;DHT22;40471;44.534;18.644;2023-07-16T02:50:13;23.90;99.90
52769;DHT22;40471;44.534;18.644;2023-07-16T02:52:39;23.80;99.90
52769;DHT22;40471;44.534;18.644;2023-07-16T02:55:05;23.80;99.90
52769;DHT22;40471;44.534;18.644;2023-07-16T02:57:30;23.80;99.90
52769;DHT22;40471;44.534;18.644;2023-07-16T02:59:56;23.80;99.90
52769;DHT22;40471;44.534;18.644;2023-07-16T03:02:21;23.80;99.90
52769;DHT22;40471;44.534;18.644;2023-07-16T03:04:47;23.70;99.90
52769;DHT22;40471;44.534;18.644;2023-07-16T03:07:12;23.70;99.90
52769;DHT22;40471;44.534;18.644;2023-07-16T03:09:38;23.60;99.90
52769;DHT22;40471;44.534;18.644;2023-07-16T03:12:04;23.60;99.90
52769;DHT22;40471;44.534;18.644;2023-07-16T03:14:29;23.50;99.90
52769;DHT22;40471;44.534;18.644;2023-07-16T03:16:55;23.50;99.90
52769;DHT22;40471;44.534;18.644;2023-07-16T03:19:20;23.50;99.90
52769;DHT22;40471;44.534;18.644;2023-07-16T03:21:46;23.60;99.90
52769;DHT22;40471;44.534;18.644;2023-07-16T03:24:14;23.50;99.90
52769;DHT22;40471;44.534;18.644;2023-07-16T03:26:39;23.50;99.90
52769;DHT22;40471;44.534;18.644;2023-07-16T03:29:05;23.50;99.90
52769;DHT22;40471;44.534;18.644;2023-07-16T03:31:30;23.50;99.90
52769;DHT22;40471;44.534;18.644;2023-07-16T03:33:56;23.50;99.90
52769;DHT22;40471;44.534;18.644;2023-07-16T03:36:22;23.40;99.90
52769;DHT22;40471;44.534;18.644;2023-07-16T03:38:47;23.40;99.90
52769;DHT22;40471;44.534;18.644;2023-07-16T03:41:13;23.40;99.90
52769;DHT22;40471;44.534;18.644;2023-07-16T03:43:38;23.40;99.90
52769;DHT22;40471;44.534;18.644;2023-07-16T03:46:04;23.50;99.90
52769;DHT22;40471;44.534;18.644;2023-07-16T03:48:32;23.50;99.90
52769;DHT22;40471;44.534;18.644;2023-07-16T03:50:58;23.50;99.90
52769;DHT22;40471;44.534;18.644;2023-07-16T03:53:23;23.50;99.90
52769;DHT22;40471;44.534;18.644;2023-07-16T03:55:49;23.60;99.90
52769;DHT22;40471;44.534;18.644;2023-07-16T03:58:15;23.70;99.90
52769;DHT22;40471;44.534;18.644;2023-07-16T04:00:41;23.70;99.90
52769;DHT22;40471;44.534;18.644;2023-07-16T04:03:06;23.80;99.90
52769;DHT22;40471;44.534;18.644;2023-07-16T04:05:32;23.80;99.90
52769;DHT22;40471;44.534;18.644;2023-07-16T04:07:57;23.90;99.90
52769;DHT22;40471;44.534;18.644;2023-07-16T04:10:23;23.90;99.90
52769;DHT22;40471;44.534;18.644;2023-07-16T04:12:49;24.00;99.90
52769;DHT22;40471;44.534;18.644;2023-07-16T04:15:14;24.00;99.90
52769;DHT22;40471;44.534;18.644;2023-07-16T04:17:40;24.10;99.90
52769;DHT22;40471;44.534;18.644;2023-07-16T04:20:06;24.20;99.90
52769;DHT22;40471;44.534;18.644;2023-07-16T04:22:32;24.40;99.90
52769;DHT22;40471;44.534;18.644;2023-07-16T04:24:58;24.50;99.90
52769;DHT22;40471;44.534;18.644;2023-07-16T04:27:24;24.60;99.90
52769;DHT22;40471;44.534;18.644;2023-07-16T04:29:49;24.70;99.90
52769;DHT22;40471;44.534;18.644;2023-07-16T04:32:15;24.80;99.90
52769;DHT22;40471;44.534;18.644;2023-07-16T04:34:40;24.80;99.90
52769;DHT22;40471;44.534;18.644;2023-07-16T04:37:06;24.80;99.90
52769;DHT22;40471;44.534;18.644;2023-07-16T04:39:32;24.90;99.90
52769;DHT22;40471;44.534;18.644;2023-07-16T04:41:57;25.10;99.90
52769;DHT22;40471;44.534;18.644;2023-07-16T04:44:23;25.20;99.90
52769;DHT22;40471;44.534;18.644;2023-07-16T04:46:48;25.30;99.90
52769;DHT22;40471;44.534;18.644;2023-07-16T04:49:14;25.40;99.90
52769;DHT22;40471;44.534;18.644;2023-07-16T04:51:39;25.50;99.90
52769;DHT22;40471;44.534;18.644;2023-07-16T04:54:05;25.70;99.90
52769;DHT22;40471;44.534;18.644;2023-07-16T04:56:31;25.90;99.90
52769;DHT22;40471;44.534;18.644;2023-07-16T04:58:56;26.00;99.90
52769;DHT22;40471;44.534;18.644;2023-07-16T05:01:22;26.30;99.90
52769;DHT22;40471;44.534;18.644;2023-07-16T05:03:47;26.40;99.90
52769;DHT22;40471;44.534;18.644;2023-07-16T05:06:13;26.60;99.90
52769;DHT22;40471;44.534;18.644;2023-07-16T05:08:38;26.80;99.90
52769;DHT22;40471;44.534;18.644;2023-07-16T05:11:04;26.90;99.90
52769;DHT22;40471;44.534;18.644;2023-07-16T05:13:30;27.10;99.90
52769;DHT22;40471;44.534;18.644;2023-07-16T05:15:55;27.30;99.90
52769;DHT22;40471;44.534;18.644;2023-07-16T05:18:21;27.40;99.90
52769;DHT22;40471;44.534;18.644;2023-07-16T05:20:48;27.60;99.90
52769;DHT22;40471;44.534;18.644;2023-07-16T05:23:14;27.70;99.90
52769;DHT22;40471;44.534;18.644;2023-07-16T05:25:45;27.80;99.90
52769;DHT22;40471;44.534;18.644;2023-07-16T05:28:10;27.80;99.90
52769;DHT22;40471;44.534;18.644;2023-07-16T05:30:36;28.00;99.90
52769;DHT22;40471;44.534;18.644;2023-07-16T05:33:01;28.20;99.90
52769;DHT22;40471;44.534;18.644;2023-07-16T05:35:27;28.30;99.90
52769;DHT22;40471;44.534;18.644;2023-07-16T05:37:52;28.70;99.90
52769;DHT22;40471;44.534;18.644;2023-07-16T05:40:18;31.00;99.90
52769;DHT22;40471;44.534;18.644;2023-07-16T05:42:44;33.60;99.90
52769;DHT22;40471;44.534;18.644;2023-07-16T05:45:09;35.60;99.90
52769;DHT22;40471;44.534;18.644;2023-07-16T05:47:35;37.30;97.40
52769;DHT22;40471;44.534;18.644;2023-07-16T05:50:01;38.70;90.60
52769;DHT22;40471;44.534;18.644;2023-07-16T05:52:26;39.60;86.20
52769;DHT22;40471;44.534;18.644;2023-07-16T05:54:52;40.50;81.50
52769;DHT22;40471;44.534;18.644;2023-07-16T05:57:17;41.50;78.20
52769;DHT22;40471;44.534;18.644;2023-07-16T05:59:43;41.40;75.20
52769;DHT22;40471;44.534;18.644;2023-07-16T06:02:08;42.40;73.90
52769;DHT22;40471;44.534;18.644;2023-07-16T06:04:34;43.10;72.00
52769;DHT22;40471;44.534;18.644;2023-07-16T06:07:00;43.70;69.70
52769;DHT22;40471;44.534;18.644;2023-07-16T06:09:25;44.20;67.60
52769;DHT22;40471;44.534;18.644;2023-07-16T06:11:51;44.60;66.50
52769;DHT22;40471;44.534;18.644;2023-07-16T06:14:17;44.80;65.20
52769;DHT22;40471;44.534;18.644;2023-07-16T06:16:42;45.30;64.60
52769;DHT22;40471;44.534;18.644;2023-07-16T06:19:08;45.40;63.80
52769;DHT22;40471;44.534;18.644;2023-07-16T06:21:33;45.70;62.50
52769;DHT22;40471;44.534;18.644;2023-07-16T06:23:59;46.20;62.20
52769;DHT22;40471;44.534;18.644;2023-07-16T06:26:25;46.50;61.90
52769;DHT22;40471;44.534;18.644;2023-07-16T06:28:50;46.60;60.30
52769;DHT22;40471;44.534;18.644;2023-07-16T06:31:16;47.00;60.80
52769;DHT22;40471;44.534;18.644;2023-07-16T06:33:42;47.40;60.20
52769;DHT22;40471;44.534;18.644;2023-07-16T06:36:07;47.90;59.70
52769;DHT22;40471;44.534;18.644;2023-07-16T06:38:33;48.00;58.70
52769;DHT22;40471;44.534;18.644;2023-07-16T06:40:59;48.20;58.00
52769;DHT22;40471;44.534;18.644;2023-07-16T06:43:24;48.30;57.30
52769;DHT22;40471;44.534;18.644;2023-07-16T06:45:50;48.40;57.70
52769;DHT22;40471;44.534;18.644;2023-07-16T06:48:19;48.60;58.00
52769;DHT22;40471;44.534;18.644;2023-07-16T06:50:44;48.80;56.50
52769;DHT22;40471;44.534;18.644;2023-07-16T06:53:10;49.00;56.50
52769;DHT22;40471;44.534;18.644;2023-07-16T06:55:36;49.40;55.80
52769;DHT22;40471;44.534;18.644;2023-07-16T06:58:02;49.60;55.40
52769;DHT22;40471;44.534;18.644;2023-07-16T07:00:28;49.60;55.50
52769;DHT22;40471;44.534;18.644;2023-07-16T07:02:54;49.80;55.10
52769;DHT22;40471;44.534;18.644;2023-07-16T07:05:19;49.70;55.10
52769;DHT22;40471;44.534;18.644;2023-07-16T07:07:45;49.30;55.60
52769;DHT22;40471;44.534;18.644;2023-07-16T07:10:11;49.00;55.10
52769;DHT22;40471;44.534;18.644;2023-07-16T07:12:37;49.10;55.10
52769;DHT22;40471;44.534;18.644;2023-07-16T07:15:06;49.00;54.80
52769;DHT22;40471;44.534;18.644;2023-07-16T07:17:32;48.60;56.20
52769;DHT22;40471;44.534;18.644;2023-07-16T07:19:57;49.20;55.90
52769;DHT22;40471;44.534;18.644;2023-07-16T07:22:23;49.60;55.00
52769;DHT22;40471;44.534;18.644;2023-07-16T07:24:48;50.20;55.70
52769;DHT22;40471;44.534;18.644;2023-07-16T07:27:15;50.10;55.90
52769;DHT22;40471;44.534;18.644;2023-07-16T07:29:40;50.50;54.90
52769;DHT22;40471;44.534;18.644;2023-07-16T07:32:06;50.70;54.50
52769;DHT22;40471;44.534;18.644;2023-07-16T07:34:31;50.00;54.60
52769;DHT22;40471;44.534;18.644;2023-07-16T07:36:57;49.60;55.20
52769;DHT22;40471;44.534;18.644;2023-07-16T07:39:23;49.80;53.90
52769;DHT22;40471;44.534;18.644;2023-07-16T07:41:48;50.00;54.80
52769;DHT22;40471;44.534;18.644;2023-07-16T07:44:14;49.90;53.80
52769;DHT22;40471;44.534;18.644;2023-07-16T07:46:39;50.10;53.20
52769;DHT22;40471;44.534;18.644;2023-07-16T07:49:05;49.80;53.50
52769;DHT22;40471;44.534;18.644;2023-07-16T07:51:30;49.80;53.00
52769;DHT22;40471;44.534;18.644;2023-07-16T07:53:56;49.80;53.30
52769;DHT22;40471;44.534;18.644;2023-07-16T07:56:22;50.10;53.30
52769;DHT22;40471;44.534;18.644;2023-07-16T07:58:47;50.40;53.70
52769;DHT22;40471;44.534;18.644;2023-07-16T08:01:13;50.40;53.30
52769;DHT22;40471;44.534;18.644;2023-07-16T08:03:38;50.40;53.60
52769;DHT22;40471;44.534;18.644;2023-07-16T08:06:04;50.50;52.80
52769;DHT22;40471;44.534;18.644;2023-07-16T08:08:30;50.40;52.50
52769;DHT22;40471;44.534;18.644;2023-07-16T08:10:55;50.40;53.30
52769;DHT22;40471;44.534;18.644;2023-07-16T08:13:21;50.70;52.60
52769;DHT22;40471;44.534;18.644;2023-07-16T08:15:46;50.60;52.80
52769;DHT22;40471;44.534;18.644;2023-07-16T08:18:13;50.40;52.00
52769;DHT22;40471;44.534;18.644;2023-07-16T08:20:39;50.40;52.70
52769;DHT22;40471;44.534;18.644;2023-07-16T08:23:06;50.30;51.20
52769;DHT22;40471;44.534;18.644;2023-07-16T08:25:31;50.30;51.90
52769;DHT22;40471;44.534;18.644;2023-07-16T08:27:57;49.70;51.60
52769;DHT22;40471;44.534;18.644;2023-07-16T08:30:23;49.00;53.30
52769;DHT22;40471;44.534;18.644;2023-07-16T08:32:48;49.00;52.50
52769;DHT22;40471;44.534;18.644;2023-07-16T08:35:15;48.70;51.90
52769;DHT22;40471;44.534;18.644;2023-07-16T08:37:42;47.80;53.70
52769;DHT22;40471;44.534;18.644;2023-07-16T08:40:08;47.10;53.70
52769;DHT22;40471;44.534;18.644;2023-07-16T08:42:36;46.40;53.80
52769;DHT22;40471;44.534;18.644;2023-07-16T08:45:03;46.40;53.90
52769;DHT22;40471;44.534;18.644;2023-07-16T08:47:31;46.70;54.20
52769;DHT22;40471;44.534;18.644;2023-07-16T08:49:57;47.10;53.50
52769;DHT22;40471;44.534;18.644;2023-07-16T08:52:22;47.10;53.10
52769;DHT22;40471;44.534;18.644;2023-07-16T08:54:48;47.40;53.30
52769;DHT22;40471;44.534;18.644;2023-07-16T08:57:14;47.70;53.50
52769;DHT22;40471;44.534;18.644;2023-07-16T08:59:40;48.10;53.10
52769;DHT22;40471;44.534;18.644;2023-07-16T09:02:06;48.30;54.00
52769;DHT22;40471;44.534;18.644;2023-07-16T09:04:32;47.90;53.20
52769;DHT22;40471;44.534;18.644;2023-07-16T09:06:57;47.70;53.20
52769;DHT22;40471;44.534;18.644;2023-07-16T09:09:23;47.60;54.10
52769;DHT22;40471;44.534;18.644;2023-07-16T09:11:49;47.60;53.60
52769;DHT22;40471;44.534;18.644;2023-07-16T09:14:16;47.80;54.60
52769;DHT22;40471;44.534;18.644;2023-07-16T09:16:42;47.90;53.40
52769;DHT22;40471;44.534;18.644;2023-07-16T09:19:09;48.20;53.10
52769;DHT22;40471;44.534;18.644;2023-07-16T09:21:36;47.80;54.00
52769;DHT22;40471;44.534;18.644;2023-07-16T09:24:05;47.20;53.60
52769;DHT22;40471;44.534;18.644;2023-07-16T09:26:31;47.00;53.20
52769;DHT22;40471;44.534;18.644;2023-07-16T09:28:57;47.10;54.50
52769;DHT22;40471;44.534;18.644;2023-07-16T09:31:22;47.00;53.10
52769;DHT22;40471;44.534;18.644;2023-07-16T09:33:48;47.00;52.00
52769;DHT22;40471;44.534;18.644;2023-07-16T09:36:13;47.10;51.70
52769;DHT22;40471;44.534;18.644;2023-07-16T09:38:47;47.40;53.60
52769;DHT22;40471;44.534;18.644;2023-07-16T09:41:13;47.20;53.20
52769;DHT22;40471;44.534;18.644;2023-07-16T09:43:39;47.30;52.50
52769;DHT22;40471;44.534;18.644;2023-07-16T09:46:05;47.40;52.60
52769;DHT22;40471;44.534;18.644;2023-07-16T09:48:31;47.30;53.10
52769;DHT22;40471;44.534;18.644;2023-07-16T09:50:57;47.60;52.70
52769;DHT22;40471;44.534;18.644;2023-07-16T09:53:23;47.80;52.00
52769;DHT22;40471;44.534;18.644;2023-07-16T09:55:49;48.10;51.80
52769;DHT22;40471;44.534;18.644;2023-07-16T09:58:17;48.30;52.30
52769;DHT22;40471;44.534;18.644;2023-07-16T10:00:44;48.10;50.80
52769;DHT22;40471;44.534;18.644;2023-07-16T10:03:11;47.80;49.80
52769;DHT22;40471;44.534;18.644;2023-07-16T10:05:37;47.80;50.60
52769;DHT22;40471;44.534;18.644;2023-07-16T10:08:02;47.90;51.70
52769;DHT22;40471;44.534;18.644;2023-07-16T10:10:41;48.00;51.60
52769;DHT22;40471;44.534;18.644;2023-07-16T10:13:08;47.50;51.80
52769;DHT22;40471;44.534;18.644;2023-07-16T10:15:34;47.30;51.20
52769;DHT22;40471;44.534;18.644;2023-07-16T10:17:59;47.00;50.90
52769;DHT22;40471;44.534;18.644;2023-07-16T10:20:29;46.90;51.50
52769;DHT22;40471;44.534;18.644;2023-07-16T10:22:55;47.20;49.90
52769;DHT22;40471;44.534;18.644;2023-07-16T10:27:47;47.40;50.40
52769;DHT22;40471;44.534;18.644;2023-07-16T10:30:13;47.30;49.10
52769;DHT22;40471;44.534;18.644;2023-07-16T10:32:39;47.10;47.40
52769;DHT22;40471;44.534;18.644;2023-07-16T10:35:05;47.20;47.70
52769;DHT22;40471;44.534;18.644;2023-07-16T10:37:31;47.50;47.80
52769;DHT22;40471;44.534;18.644;2023-07-16T10:39:58;47.80;48.40
52769;DHT22;40471;44.534;18.644;2023-07-16T10:42:25;47.90;48.30
52769;DHT22;40471;44.534;18.644;2023-07-16T10:44:51;48.00;48.10
52769;DHT22;40471;44.534;18.644;2023-07-16T10:50:21;47.20;48.90
52769;DHT22;40471;44.534;18.644;2023-07-16T10:52:50;47.10;46.90
52769;DHT22;40471;44.534;18.644;2023-07-16T10:55:16;46.90;46.20
52769;DHT22;40471;44.534;18.644;2023-07-16T10:57:41;47.00;46.10
52769;DHT22;40471;44.534;18.644;2023-07-16T11:00:09;47.40;45.80
52769;DHT22;40471;44.534;18.644;2023-07-16T11:02:38;46.90;48.30
52769;DHT22;40471;44.534;18.644;2023-07-16T11:05:05;46.60;49.40
52769;DHT22;40471;44.534;18.644;2023-07-16T11:07:31;46.60;49.80
52769;DHT22;40471;44.534;18.644;2023-07-16T11:09:57;46.80;48.70
52769;DHT22;40471;44.534;18.644;2023-07-16T11:12:23;47.10;48.80
52769;DHT22;40471;44.534;18.644;2023-07-16T11:14:50;47.20;45.40
52769;DHT22;40471;44.534;18.644;2023-07-16T11:17:16;47.10;45.70
52769;DHT22;40471;44.534;18.644;2023-07-16T11:19:45;47.00;45.20
52769;DHT22;40471;44.534;18.644;2023-07-16T11:22:11;46.90;46.60
52769;DHT22;40471;44.534;18.644;2023-07-16T11:27:06;46.90;45.20
52769;DHT22;40471;44.534;18.644;2023-07-16T11:29:35;47.10;46.20
52769;DHT22;40471;44.534;18.644;2023-07-16T11:32:03;46.80;46.00
52769;DHT22;40471;44.534;18.644;2023-07-16T11:34:29;46.30;47.30
52769;DHT22;40471;44.534;18.644;2023-07-16T11:36:55;46.10;46.50
52769;DHT22;40471;44.534;18.644;2023-07-16T11:39:21;46.00;47.00
52769;DHT22;40471;44.534;18.644;2023-07-16T11:41:55;46.20;47.60
52769;DHT22;40471;44.534;18.644;2023-07-16T11:44:21;46.40;47.00
52769;DHT22;40471;44.534;18.644;2023-07-16T11:46:47;46.70;47.70
52769;DHT22;40471;44.534;18.644;2023-07-16T11:49:13;46.60;46.80
52769;DHT22;40471;44.534;18.644;2023-07-16T11:51:39;46.40;46.50
52769;DHT22;40471;44.534;18.644;2023-07-16T11:54:05;46.10;47.40
52769;DHT22;40471;44.534;18.644;2023-07-16T11:56:30;46.10;46.40
52769;DHT22;40471;44.534;18.644;2023-07-16T11:58:56;46.20;47.00
52769;DHT22;40471;44.534;18.644;2023-07-16T12:01:21;46.00;47.30
52769;DHT22;40471;44.534;18.644;2023-07-16T12:03:47;45.90;46.80
52769;DHT22;40471;44.534;18.644;2023-07-16T12:06:13;45.80;47.10
52769;DHT22;40471;44.534;18.644;2023-07-16T12:08:38;45.80;46.00
52769;DHT22;40471;44.534;18.644;2023-07-16T12:11:04;45.40;46.30
52769;DHT22;40471;44.534;18.644;2023-07-16T12:13:30;45.20;47.20
52769;DHT22;40471;44.534;18.644;2023-07-16T12:15:55;45.20;47.60
52769;DHT22;40471;44.534;18.644;2023-07-16T12:18:21;45.40;46.80
52769;DHT22;40471;44.534;18.644;2023-07-16T12:20:47;45.40;45.90
52769;DHT22;40471;44.534;18.644;2023-07-16T12:23:12;45.20;46.70
52769;DHT22;40471;44.534;18.644;2023-07-16T12:25:38;45.30;47.20
52769;DHT22;40471;44.534;18.644;2023-07-16T12:28:04;45.30;46.80
52769;DHT22;40471;44.534;18.644;2023-07-16T12:30:29;45.30;46.40
52769;DHT22;40471;44.534;18.644;2023-07-16T12:32:55;45.40;46.30
52769;DHT22;40471;44.534;18.644;2023-07-16T12:35:21;45.40;46.50
52769;DHT22;40471;44.534;18.644;2023-07-16T12:37:46;45.40;46.30
52769;DHT22;40471;44.534;18.644;2023-07-16T12:40:12;45.60;45.90
52769;DHT22;40471;44.534;18.644;2023-07-16T12:42:38;45.30;45.60
52769;DHT22;40471;44.534;18.644;2023-07-16T12:45:03;44.90;46.60
52769;DHT22;40471;44.534;18.644;2023-07-16T12:47:29;44.80;46.30
52769;DHT22;40471;44.534;18.644;2023-07-16T12:49:55;44.50;46.00
52769;DHT22;40471;44.534;18.644;2023-07-16T12:52:20;44.30;47.40
52769;DHT22;40471;44.534;18.644;2023-07-16T12:54:46;44.40;47.30
52769;DHT22;40471;44.534;18.644;2023-07-16T12:57:12;44.40;47.40
52769;DHT22;40471;44.534;18.644;2023-07-16T12:59:37;44.20;47.00
52769;DHT22;40471;44.534;18.644;2023-07-16T13:02:03;44.20;47.10
52769;DHT22;40471;44.534;18.644;2023-07-16T13:04:29;44.10;47.00
52769;DHT22;40471;44.534;18.644;2023-07-16T13:06:54;44.00;47.60
52769;DHT22;40471;44.534;18.644;2023-07-16T13:09:20;44.00;47.60
52769;DHT22;40471;44.534;18.644;2023-07-16T13:11:46;43.90;48.00
52769;DHT22;40471;44.534;18.644;2023-07-16T13:14:11;43.80;47.50
52769;DHT22;40471;44.534;18.644;2023-07-16T13:16:37;43.70;47.20
52769;DHT22;40471;44.534;18.644;2023-07-16T13:19:03;43.50;47.00
52769;DHT22;40471;44.534;18.644;2023-07-16T13:21:29;42.80;47.20
52769;DHT22;40471;44.534;18.644;2023-07-16T13:23:54;42.30;48.30
52769;DHT22;40471;44.534;18.644;2023-07-16T13:26:20;42.30;49.20
52769;DHT22;40471;44.534;18.644;2023-07-16T13:28:45;42.20;49.70
52769;DHT22;40471;44.534;18.644;2023-07-16T13:31:11;42.20;49.00
52769;DHT22;40471;44.534;18.644;2023-07-16T13:33:37;42.20;48.40
52769;DHT22;40471;44.534;18.644;2023-07-16T13:36:02;42.00;48.70
52769;DHT22;40471;44.534;18.644;2023-07-16T13:38:30;41.90;49.10
52769;DHT22;40471;44.534;18.644;2023-07-16T13:40:56;41.80;49.00
52769;DHT22;40471;44.534;18.644;2023-07-16T13:43:21;41.60;49.80
52769;DHT22;40471;44.534;18.644;2023-07-16T13:45:47;41.40;49.40
52769;DHT22;40471;44.534;18.644;2023-07-16T13:48:13;41.30;49.80
52769;DHT22;40471;44.534;18.644;2023-07-16T13:50:38;41.30;50.00
52769;DHT22;40471;44.534;18.644;2023-07-16T13:53:04;41.30;49.90
52769;DHT22;40471;44.534;18.644;2023-07-16T13:55:30;41.30;49.60
52769;DHT22;40471;44.534;18.644;2023-07-16T13:57:55;41.30;49.80
52769;DHT22;40471;44.534;18.644;2023-07-16T14:00:21;41.10;50.10
52769;DHT22;40471;44.534;18.644;2023-07-16T14:02:47;40.90;50.50
52769;DHT22;40471;44.534;18.644;2023-07-16T14:05:13;40.70;51.30
52769;DHT22;40471;44.534;18.644;2023-07-16T14:07:38;40.60;51.70
52769;DHT22;40471;44.534;18.644;2023-07-16T14:10:04;40.60;51.10
52769;DHT22;40471;44.534;18.644;2023-07-16T14:12:30;40.50;51.20
52769;DHT22;40471;44.534;18.644;2023-07-16T14:14:56;40.20;52.00
52769;DHT22;40471;44.534;18.644;2023-07-16T14:17:21;40.00;51.40
52769;DHT22;40471;44.534;18.644;2023-07-16T14:19:48;39.90;51.10
52769;DHT22;40471;44.534;18.644;2023-07-16T14:22:14;39.80;52.20
52769;DHT22;40471;44.534;18.644;2023-07-16T14:24:41;39.80;51.30
52769;DHT22;40471;44.534;18.644;2023-07-16T14:27:07;39.70;51.40
52769;DHT22;40471;44.534;18.644;2023-07-16T14:29:34;39.60;51.30
52769;DHT22;40471;44.534;18.644;2023-07-16T14:31:59;39.70;51.30
52769;DHT22;40471;44.534;18.644;2023-07-16T14:34:25;39.70;51.70
52769;DHT22;40471;44.534;18.644;2023-07-16T14:36:52;39.60;51.10
52769;DHT22;40471;44.534;18.644;2023-07-16T14:39:17;39.50;51.10
52769;DHT22;40471;44.534;18.644;2023-07-16T14:41:43;39.40;51.90
52769;DHT22;40471;44.534;18.644;2023-07-16T14:44:09;39.40;51.80
52769;DHT22;40471;44.534;18.644;2023-07-16T14:46:35;39.40;52.20
52769;DHT22;40471;44.534;18.644;2023-07-16T14:49:00;39.40;51.50
52769;DHT22;40471;44.534;18.644;2023-07-16T14:51:27;39.40;51.30
52769;DHT22;40471;44.534;18.644;2023-07-16T14:53:53;39.50;50.80
52769;DHT22;40471;44.534;18.644;2023-07-16T14:56:18;39.40;51.30
52769;DHT22;40471;44.534;18.644;2023-07-16T14:58:44;39.40;52.30
52769;DHT22;40471;44.534;18.644;2023-07-16T15:01:10;39.20;52.10
52769;DHT22;40471;44.534;18.644;2023-07-16T15:03:35;39.10;52.00
52769;DHT22;40471;44.534;18.644;2023-07-16T15:06:02;39.00;52.60
52769;DHT22;40471;44.534;18.644;2023-07-16T15:08:28;39.00;53.80
52769;DHT22;40471;44.534;18.644;2023-07-16T15:10:57;38.90;53.00
52769;DHT22;40471;44.534;18.644;2023-07-16T15:13:23;38.80;54.10
52769;DHT22;40471;44.534;18.644;2023-07-16T15:15:51;38.70;52.80
52769;DHT22;40471;44.534;18.644;2023-07-16T15:18:17;38.60;54.20
52769;DHT22;40471;44.534;18.644;2023-07-16T15:20:43;38.60;54.40